createdAt,value
2019-01-14T00:03:36.106Z,3.67
2019-01-14T00:08:43.931Z,3.61
2019-01-14T00:13:51.626Z,3.74
2019-01-14T00:18:59.384Z,2.52
2019-01-14T00:24:07.112Z,2.94
2019-01-14T00:29:14.812Z,3.45
2019-01-14T00:34:22.522Z,2.56
2019-01-14T00:39:30.232Z,2.67
2019-01-14T00:44:37.916Z,2.78
2019-01-14T00:49:45.701Z,3.53
2019-01-14T00:54:53.416Z,3.73
2019-01-14T01:00:01.173Z,4.07
2019-01-14T01:05:08.851Z,3.98
2019-01-14T01:10:16.640Z,4.40
2019-01-14T01:15:24.300Z,3.78
2019-01-14T01:20:32.029Z,3.30
2019-01-14T01:25:39.731Z,3.53
2019-01-14T01:30:47.563Z,3.54
2019-01-14T01:35:55.289Z,3.93
2019-01-14T01:41:02.988Z,3.20
2019-01-14T01:46:10.701Z,2.97
2019-01-14T01:51:18.504Z,2.53
2019-01-14T01:56:26.190Z,2.27
2019-01-14T02:01:33.980Z,2.75
2019-01-14T02:06:41.657Z,2.56
2019-01-14T02:11:49.383Z,2.62
2019-01-14T02:16:57.046Z,2.43
2019-01-14T02:22:04.809Z,2.05
2019-01-14T02:27:12.547Z,2.73
2019-01-14T02:32:20.298Z,2.93
2019-01-14T02:37:28.062Z,2.90
2019-01-14T02:42:35.886Z,2.45
2019-01-14T02:47:43.572Z,2.82
2019-01-14T02:52:51.374Z,2.91
2019-01-14T02:57:59.021Z,2.90
2019-01-14T03:03:06.793Z,2.80
2019-01-14T03:08:14.441Z,2.76
2019-01-14T03:13:22.223Z,2.86
2019-01-14T03:18:29.901Z,3.33
2019-01-14T03:23:37.700Z,2.73
2019-01-14T03:28:45.355Z,3.81
2019-01-14T03:33:53.077Z,3.72
2019-01-14T03:39:28.457Z,5.60
2019-01-14T03:44:36.201Z,6.05
2019-01-14T03:49:43.892Z,6.36
2019-01-14T03:54:51.604Z,7.48
2019-01-14T03:59:59.279Z,6.98
2019-01-14T04:05:07.042Z,5.75
2019-01-14T04:10:14.761Z,6.24
2019-01-14T04:15:22.557Z,2.95
2019-01-14T04:20:30.255Z,3.99
2019-01-14T04:25:38.058Z,3.31
2019-01-14T04:30:45.799Z,3.92
2019-01-14T04:35:53.560Z,4.86
2019-01-14T04:41:01.266Z,4.94
2019-01-14T04:46:09.012Z,4.43
2019-01-14T04:51:16.699Z,3.86
2019-01-14T04:56:24.407Z,3.62
2019-01-14T05:01:32.147Z,4.16
2019-01-14T05:06:39.961Z,3.18
2019-01-14T05:11:47.659Z,3.17
2019-01-14T05:16:55.499Z,4.53
2019-01-14T05:22:03.183Z,4.88
2019-01-14T05:27:10.948Z,3.94
2019-01-14T05:32:18.637Z,7.22
2019-01-14T05:37:26.483Z,3.76
2019-01-14T05:42:34.196Z,2.75
2019-01-14T05:47:42.011Z,3.77
2019-01-14T05:52:49.742Z,3.18
2019-01-14T05:57:57.482Z,3.33
2019-01-14T06:03:05.229Z,3.13
2019-01-14T06:08:13.011Z,3.95
2019-01-14T06:13:20.704Z,3.36
2019-01-14T06:18:28.467Z,2.93
2019-01-14T06:23:36.147Z,3.47
2019-01-14T06:28:43.899Z,2.98
2019-01-14T06:33:51.615Z,2.94
2019-01-14T06:38:59.437Z,3.55
2019-01-14T06:44:07.137Z,3.84
2019-01-14T06:49:14.915Z,3.09
2019-01-14T06:54:22.633Z,2.91
2019-01-14T06:59:30.493Z,2.98
2019-01-14T07:04:38.116Z,3.55
2019-01-14T07:09:45.885Z,3.68
2019-01-14T07:14:53.598Z,3.71
2019-01-14T07:20:01.365Z,3.69
2019-01-14T07:25:09.070Z,3.37
2019-01-14T07:30:16.829Z,3.58
2019-01-14T07:35:24.548Z,3.61
2019-01-14T07:40:32.325Z,3.88
2019-01-14T07:45:40.094Z,4.68
2019-01-14T07:50:47.880Z,4.21
2019-01-14T07:55:55.545Z,6.57
2019-01-14T08:01:03.284Z,4.38
2019-01-14T08:06:11.011Z,3.76
2019-01-14T08:11:18.737Z,4.11
2019-01-14T08:16:26.517Z,3.00
2019-01-14T08:21:34.337Z,2.55
2019-01-14T08:26:42.107Z,2.62
2019-01-14T08:31:49.802Z,2.65
2019-01-14T08:37:00.792Z,2.90
2019-01-14T08:42:04.841Z,2.88
2019-01-14T08:47:12.533Z,3.53
2019-01-14T08:52:20.342Z,3.44
2019-01-14T08:57:28.003Z,3.22
2019-01-14T09:02:35.811Z,3.34
2019-01-14T09:07:43.546Z,3.17
2019-01-14T09:12:51.360Z,3.10
2019-01-14T09:18:02.913Z,2.86
2019-01-14T09:23:06.331Z,3.51
2019-01-14T09:28:14.063Z,2.70
2019-01-14T09:33:21.826Z,2.75
2019-01-14T09:38:35.639Z,3.15
2019-01-14T09:43:36.930Z,3.44
2019-01-14T09:48:44.642Z,3.14
2019-01-14T09:53:52.419Z,3.43
2019-01-14T09:59:00.133Z,3.42
2019-01-14T10:04:07.934Z,3.26
2019-01-14T10:09:15.731Z,3.71
2019-01-14T10:14:23.497Z,2.76
2019-01-14T10:19:31.231Z,2.81
2019-01-14T10:24:39.014Z,3.50
2019-01-14T10:29:46.753Z,3.18
2019-01-14T10:34:54.609Z,3.52
2019-01-14T10:40:02.287Z,3.53
2019-01-14T10:45:10.064Z,3.34
2019-01-14T10:50:17.789Z,2.56
2019-01-14T10:55:25.626Z,2.51
2019-01-14T11:00:33.317Z,2.57
2019-01-14T11:05:41.144Z,2.58
2019-01-14T11:10:48.772Z,3.28
2019-01-14T11:15:56.533Z,2.49
2019-01-14T11:21:04.268Z,2.43
2019-01-14T11:26:12.061Z,2.54
2019-01-14T11:31:19.798Z,2.34
2019-01-14T11:36:27.632Z,2.31
2019-01-14T11:41:35.337Z,1.89
2019-01-14T11:46:43.114Z,1.93
2019-01-14T11:51:50.830Z,2.19
2019-01-14T11:56:58.571Z,2.37
2019-01-14T12:02:06.345Z,2.31
2019-01-14T12:07:14.099Z,2.36
2019-01-14T12:12:21.818Z,2.21
2019-01-14T12:17:29.659Z,2.31
2019-01-14T12:22:37.341Z,2.06
2019-01-14T12:27:45.096Z,2.29
2019-01-14T12:32:52.828Z,2.75
2019-01-14T12:38:00.589Z,2.47
2019-01-14T12:43:08.281Z,2.23
2019-01-14T12:48:15.999Z,2.12
2019-01-14T12:53:23.649Z,2.61
2019-01-14T12:58:31.367Z,2.41
2019-01-14T13:03:39.054Z,2.77
2019-01-14T13:08:46.866Z,2.20
2019-01-14T13:13:54.556Z,2.61
2019-01-14T13:19:02.438Z,2.29
2019-01-14T13:24:10.131Z,2.68
2019-01-14T13:29:17.910Z,2.48
2019-01-14T13:34:25.623Z,2.51
2019-01-14T13:39:34.126Z,2.36
2019-01-14T13:44:40.697Z,2.21
2019-01-14T13:49:48.883Z,2.20
2019-01-14T13:54:56.575Z,2.09
2019-01-14T14:00:04.443Z,1.94
2019-01-14T14:05:12.108Z,2.53
2019-01-14T14:10:19.997Z,2.42
2019-01-14T14:15:27.776Z,2.50
2019-01-14T14:20:35.516Z,2.53
2019-01-14T14:25:43.209Z,2.47
2019-01-14T14:30:51.066Z,2.40
2019-01-14T14:35:58.762Z,2.43
2019-01-14T14:41:06.521Z,2.67
2019-01-14T14:46:14.230Z,1.90
2019-01-14T14:51:22.007Z,2.59
2019-01-14T14:56:29.757Z,2.31
2019-01-14T15:01:37.603Z,2.38
2019-01-14T15:06:45.288Z,2.46
2019-01-14T15:11:53.048Z,2.54
2019-01-14T15:17:00.775Z,3.58
2019-01-14T15:22:08.525Z,2.69
2019-01-14T15:27:16.229Z,2.75
2019-01-14T15:32:23.975Z,2.34
2019-01-14T15:37:31.624Z,2.83
2019-01-14T15:42:39.373Z,2.53
2019-01-14T15:47:47.166Z,2.57
2019-01-14T15:52:54.959Z,2.51
2019-01-14T15:58:02.642Z,2.15
2019-01-14T16:03:10.410Z,2.67
2019-01-14T16:08:18.170Z,3.04
2019-01-14T16:13:25.897Z,2.94
2019-01-14T16:18:33.649Z,3.02
2019-01-14T16:23:41.444Z,2.71
2019-01-14T16:28:49.102Z,2.72
2019-01-14T16:33:56.845Z,3.37
2019-01-14T16:39:04.621Z,2.88
2019-01-14T16:44:12.483Z,2.60
2019-01-14T16:49:20.151Z,2.51
2019-01-14T16:54:27.907Z,2.37
2019-01-14T16:59:35.639Z,2.74
2019-01-14T17:04:43.390Z,2.66
2019-01-14T17:09:51.133Z,3.66
2019-01-14T17:14:58.894Z,3.36
2019-01-14T17:20:06.747Z,3.61
2019-01-14T17:25:14.659Z,3.59
2019-01-14T17:30:22.384Z,3.92
2019-01-14T17:35:30.117Z,4.03
2019-01-14T17:40:37.780Z,4.07
2019-01-14T17:45:45.499Z,4.56
2019-01-14T17:50:53.153Z,4.51
2019-01-14T17:56:01.085Z,4.11
2019-01-14T18:01:08.651Z,3.31
2019-01-14T18:06:16.477Z,3.10
2019-01-14T18:11:24.512Z,3.35
2019-01-14T18:16:32.054Z,4.07
2019-01-14T18:21:39.851Z,4.28
2019-01-14T18:26:47.633Z,4.81
2019-01-14T18:31:55.345Z,4.69
2019-01-14T18:37:03.072Z,3.96
2019-01-14T18:42:10.753Z,4.37
2019-01-14T18:47:18.549Z,4.48
2019-01-14T18:52:26.205Z,4.24
2019-01-14T18:57:33.941Z,4.66
2019-01-14T19:02:41.599Z,4.21
2019-01-14T19:07:49.364Z,4.41
2019-01-14T19:12:57.049Z,4.74
2019-01-14T19:18:04.800Z,4.44
2019-01-14T19:23:12.462Z,4.22
2019-01-14T19:28:20.293Z,4.19
2019-01-14T19:33:27.993Z,3.94
2019-01-14T19:38:35.730Z,4.30
2019-01-14T19:43:43.523Z,4.31
2019-01-14T19:48:51.316Z,5.32
2019-01-14T19:53:59.018Z,4.81
2019-01-14T19:59:06.779Z,5.45
2019-01-14T20:04:14.438Z,4.36
2019-01-14T20:09:22.151Z,4.35
2019-01-14T20:14:29.835Z,4.22
2019-01-14T20:19:37.607Z,3.45
2019-01-14T20:24:45.331Z,3.72
2019-01-14T20:29:53.145Z,3.95
2019-01-14T20:35:03.345Z,4.33
2019-01-14T20:40:01.179Z,4.63
2019-01-14T20:45:08.840Z,4.49
2019-01-14T20:50:16.645Z,4.76
2019-01-14T20:55:24.329Z,4.55
2019-01-14T21:00:32.101Z,5.32
2019-01-14T21:05:39.854Z,4.87
2019-01-14T21:10:47.646Z,5.37
2019-01-14T21:16:02.571Z,4.35
2019-01-14T21:21:02.674Z,4.07
2019-01-14T21:26:10.353Z,4.25
2019-01-14T21:31:18.133Z,4.08
2019-01-14T21:36:25.858Z,4.45
2019-01-14T21:41:33.659Z,4.52
2019-01-14T21:46:41.334Z,5.48
2019-01-14T21:51:49.126Z,5.25
2019-01-14T21:56:56.801Z,4.90
2019-01-14T22:02:04.602Z,4.72
2019-01-14T22:07:12.307Z,4.54
2019-01-14T22:12:20.075Z,5.51
2019-01-14T22:17:27.763Z,4.50
2019-01-14T22:22:35.524Z,4.84
2019-01-14T22:27:43.232Z,4.94
2019-01-14T22:32:51.006Z,4.69
2019-01-14T22:37:58.720Z,4.16
2019-01-14T22:43:06.453Z,5.71
2019-01-14T22:48:14.205Z,4.87
2019-01-14T22:53:22.007Z,4.76
2019-01-14T22:58:29.761Z,4.88
2019-01-14T23:03:37.509Z,4.96
2019-01-14T23:08:45.231Z,5.28
2019-01-14T23:13:52.996Z,6.75
2019-01-14T23:19:00.676Z,5.35
2019-01-14T23:24:08.502Z,6.89
2019-01-14T23:29:16.264Z,5.95
2019-01-14T23:34:26.604Z,6.63
2019-01-14T23:39:24.443Z,6.72
2019-01-14T23:44:32.178Z,6.69
2019-01-14T23:49:41.137Z,9.20
2019-01-14T23:54:48.829Z,9.76
2019-01-14T23:59:56.561Z,9.10
